sensor_id;sensor_type;location;lat;lon;timestamp;pressure;altitude;pressure_sealevel;temperature;humidity
60371;BME280;48550;40.588;49.684;2023-05-10T00:00:58;101676.63;;;13.57;100.00
60371;BME280;48550;40.588;49.684;2023-05-10T00:03:24;101679.31;;;13.57;100.00
60371;BME280;48550;40.588;49.684;2023-05-10T00:05:50;101677.09;;;13.54;100.00
60371;BME280;48550;40.588;49.684;2023-05-10T00:08:16;101683.06;;;13.56;100.00
60371;BME280;48550;40.588;49.684;2023-05-10T00:10:41;101685.91;;;13.61;100.00
60371;BME280;48550;40.588;49.684;2023-05-10T00:13:07;101687.69;;;13.67;100.00
60371;BME280;48550;40.588;49.684;2023-05-10T00:15:33;101690.63;;;13.66;100.00
60371;BME280;48550;40.588;49.684;2023-05-10T00:18:00;101692.84;;;13.69;100.00
60371;BME280;48550;40.588;49.684;2023-05-10T00:20:25;101689.09;;;13.70;100.00
60371;BME280;48550;40.588;49.684;2023-05-10T00:22:51;101679.97;;;13.71;100.00
60371;BME280;48550;40.588;49.684;2023-05-10T00:25:17;101682.66;;;13.71;100.00
60371;BME280;48550;40.588;49.684;2023-05-10T00:27:43;101686.66;;;13.80;100.00
60371;BME280;48550;40.588;49.684;2023-05-10T00:30:08;101697.69;;;13.79;100.00
60371;BME280;48550;40.588;49.684;2023-05-10T00:32:34;101693.16;;;13.91;100.00
60371;BME280;48550;40.588;49.684;2023-05-10T00:35:00;101696.56;;;13.98;100.00
60371;BME280;48550;40.588;49.684;2023-05-10T00:37:26;101699.59;;;13.90;100.00
60371;BME280;48550;40.588;49.684;2023-05-10T00:39:51;101701.47;;;13.89;100.00
60371;BME280;48550;40.588;49.684;2023-05-10T00:42:17;101704.19;;;13.89;100.00
60371;BME280;48550;40.588;49.684;2023-05-10T00:44:43;101696.22;;;13.94;100.00
60371;BME280;48550;40.588;49.684;2023-05-10T00:47:09;101696.31;;;13.88;100.00
60371;BME280;48550;40.588;49.684;2023-05-10T00:49:36;101694.66;;;13.87;100.00
60371;BME280;48550;40.588;49.684;2023-05-10T00:52:02;101687.50;;;13.81;100.00
60371;BME280;48550;40.588;49.684;2023-05-10T00:54:28;101686.91;;;13.79;100.00
60371;BME280;48550;40.588;49.684;2023-05-10T00:56:54;101683.00;;;13.75;100.00
60371;BME280;48550;40.588;49.684;2023-05-10T00:59:22;101685.13;;;13.73;100.00
60371;BME280;48550;40.588;49.684;2023-05-10T01:01:48;101676.44;;;13.71;100.00
60371;BME280;48550;40.588;49.684;2023-05-10T01:04:14;101678.34;;;13.82;100.00
60371;BME280;48550;40.588;49.684;2023-05-10T01:06:41;101671.91;;;13.83;100.00
60371;BME280;48550;40.588;49.684;2023-05-10T01:09:07;101662.28;;;13.87;100.00
60371;BME280;48550;40.588;49.684;2023-05-10T01:11:37;101656.41;;;13.90;100.00
60371;BME280;48550;40.588;49.684;2023-05-10T01:14:03;101659.72;;;13.92;100.00
60371;BME280;48550;40.588;49.684;2023-05-10T01:16:39;101660.88;;;13.96;100.00
60371;BME280;48550;40.588;49.684;2023-05-10T01:19:26;101659.97;;;14.02;100.00
60371;BME280;48550;40.588;49.684;2023-05-10T01:30:25;101656.47;;;14.13;100.00
60371;BME280;48550;40.588;49.684;2023-05-10T01:37:02;101650.63;;;14.16;100.00
60371;BME280;48550;40.588;49.684;2023-05-10T01:39:50;101653.16;;;14.11;100.00
60371;BME280;48550;40.588;49.684;2023-05-10T01:42:11;101651.88;;;14.02;100.00
60371;BME280;48550;40.588;49.684;2023-05-10T01:44:47;101643.63;;;13.97;100.00
60371;BME280;48550;40.588;49.684;2023-05-10T01:47:19;101643.50;;;13.92;100.00
60371;BME280;48550;40.588;49.684;2023-05-10T01:49:49;101649.97;;;13.91;100.00
60371;BME280;48550;40.588;49.684;2023-05-10T01:52:18;101653.84;;;13.95;100.00
60371;BME280;48550;40.588;49.684;2023-05-10T01:54:55;101652.91;;;13.89;100.00
60371;BME280;48550;40.588;49.684;2023-05-10T01:57:22;101656.41;;;13.90;100.00
60371;BME280;48550;40.588;49.684;2023-05-10T01:59:51;101660.75;;;13.91;100.00
60371;BME280;48550;40.588;49.684;2023-05-10T02:02:20;101661.00;;;13.89;100.00
60371;BME280;48550;40.588;49.684;2023-05-10T02:04:47;101658.06;;;13.91;100.00
60371;BME280;48550;40.588;49.684;2023-05-10T02:07:15;101657.25;;;13.90;100.00
60371;BME280;48550;40.588;49.684;2023-05-10T02:09:44;101655.97;;;13.93;100.00
60371;BME280;48550;40.588;49.684;2023-05-10T02:12:13;101657.13;;;13.97;100.00
60371;BME280;48550;40.588;49.684;2023-05-10T02:14:41;101654.09;;;14.05;100.00
60371;BME280;48550;40.588;49.684;2023-05-10T02:17:08;101658.56;;;14.11;100.00
60371;BME280;48550;40.588;49.684;2023-05-10T02:19:37;101658.72;;;14.16;100.00
60371;BME280;48550;40.588;49.684;2023-05-10T02:22:04;101658.59;;;14.23;100.00
60371;BME280;48550;40.588;49.684;2023-05-10T02:24:32;101662.84;;;14.30;100.00
60371;BME280;48550;40.588;49.684;2023-05-10T02:26:59;101666.13;;;14.32;100.00
60371;BME280;48550;40.588;49.684;2023-05-10T02:29:27;101667.06;;;14.38;100.00
60371;BME280;48550;40.588;49.684;2023-05-10T02:31:54;101673.44;;;14.44;100.00
60371;BME280;48550;40.588;49.684;2023-05-10T02:34:26;101679.31;;;14.52;100.00
60371;BME280;48550;40.588;49.684;2023-05-10T02:36:53;101682.94;;;14.58;100.00
60371;BME280;48550;40.588;49.684;2023-05-10T02:39:20;101679.28;;;14.64;100.00
60371;BME280;48550;40.588;49.684;2023-05-10T02:41:47;101677.53;;;14.70;100.00
60371;BME280;48550;40.588;49.684;2023-05-10T02:44:15;101674.59;;;14.71;100.00
60371;BME280;48550;40.588;49.684;2023-05-10T02:46:43;101677.41;;;14.76;100.00
60371;BME280;48550;40.588;49.684;2023-05-10T02:49:09;101682.69;;;14.83;100.00
60371;BME280;48550;40.588;49.684;2023-05-10T02:51:38;101689.03;;;14.88;100.00
60371;BME280;48550;40.588;49.684;2023-05-10T02:54:19;101686.69;;;14.92;100.00
60371;BME280;48550;40.588;49.684;2023-05-10T02:56:52;101691.50;;;15.02;100.00
60371;BME280;48550;40.588;49.684;2023-05-10T02:59:19;101696.19;;;15.06;100.00
60371;BME280;48550;40.588;49.684;2023-05-10T03:01:45;101698.41;;;15.09;100.00
60371;BME280;48550;40.588;49.684;2023-05-10T03:04:10;101697.94;;;15.12;100.00
60371;BME280;48550;40.588;49.684;2023-05-10T03:06:36;101695.69;;;15.21;100.00
60371;BME280;48550;40.588;49.684;2023-05-10T03:09:02;101692.50;;;15.24;100.00
60371;BME280;48550;40.588;49.684;2023-05-10T03:11:56;101688.34;;;15.33;100.00
60371;BME280;48550;40.588;49.684;2023-05-10T03:23:49;101678.66;;;15.61;100.00
60371;BME280;48550;40.588;49.684;2023-05-10T03:26:24;101682.84;;;15.68;100.00
60371;BME280;48550;40.588;49.684;2023-05-10T03:28:52;101684.81;;;15.73;100.00
60371;BME280;48550;40.588;49.684;2023-05-10T03:31:18;101679.50;;;15.78;100.00
60371;BME280;48550;40.588;49.684;2023-05-10T03:33:51;101683.13;;;15.83;100.00
60371;BME280;48550;40.588;49.684;2023-05-10T03:36:18;101686.06;;;15.82;100.00
60371;BME280;48550;40.588;49.684;2023-05-10T03:38:43;101689.00;;;15.80;100.00
60371;BME280;48550;40.588;49.684;2023-05-10T03:41:09;101691.22;;;15.83;100.00
60371;BME280;48550;40.588;49.684;2023-05-10T03:43:35;101683.13;;;15.83;100.00
60371;BME280;48550;40.588;49.684;2023-05-10T03:46:05;101681.31;;;15.89;100.00
60371;BME280;48550;40.588;49.684;2023-05-10T03:48:31;101686.31;;;15.97;100.00
60371;BME280;48550;40.588;49.684;2023-05-10T03:50:57;101688.06;;;16.03;100.00
60371;BME280;48550;40.588;49.684;2023-05-10T03:53:23;101697.31;;;16.07;100.00
60371;BME280;48550;40.588;49.684;2023-05-10T03:55:49;101695.84;;;16.16;100.00
60371;BME280;48550;40.588;49.684;2023-05-10T03:58:15;101695.28;;;16.14;100.00
60371;BME280;48550;40.588;49.684;2023-05-10T04:00:41;101692.66;;;16.19;100.00
60371;BME280;48550;40.588;49.684;2023-05-10T04:03:12;101692.50;;;16.26;100.00
60371;BME280;48550;40.588;49.684;2023-05-10T04:05:38;101704.63;;;16.24;100.00
60371;BME280;48550;40.588;49.684;2023-05-10T04:08:04;101708.50;;;16.28;100.00
60371;BME280;48550;40.588;49.684;2023-05-10T04:10:30;101705.41;;;16.36;100.00
60371;BME280;48550;40.588;49.684;2023-05-10T04:12:56;101702.91;;;16.34;100.00
60371;BME280;48550;40.588;49.684;2023-05-10T04:15:22;101710.06;;;16.40;100.00
60371;BME280;48550;40.588;49.684;2023-05-10T04:17:48;101712.53;;;16.42;100.00
60371;BME280;48550;40.588;49.684;2023-05-10T04:20:14;101711.41;;;16.38;100.00
60371;BME280;48550;40.588;49.684;2023-05-10T04:22:40;101714.84;;;16.50;100.00
60371;BME280;48550;40.588;49.684;2023-05-10T04:25:06;101713.44;;;16.47;100.00
60371;BME280;48550;40.588;49.684;2023-05-10T04:27:32;101715.09;;;16.48;100.00
60371;BME280;48550;40.588;49.684;2023-05-10T04:29:58;101706.78;;;16.55;100.00
60371;BME280;48550;40.588;49.684;2023-05-10T04:32:24;101712.78;;;16.57;100.00
60371;BME280;48550;40.588;49.684;2023-05-10T04:34:49;101718.28;;;16.62;100.00
60371;BME280;48550;40.588;49.684;2023-05-10T04:37:16;101721.56;;;16.64;100.00
60371;BME280;48550;40.588;49.684;2023-05-10T04:39:43;101706.97;;;16.65;100.00
60371;BME280;48550;40.588;49.684;2023-05-10T04:42:09;101698.84;;;16.65;100.00
60371;BME280;48550;40.588;49.684;2023-05-10T04:44:35;101708.44;;;16.73;100.00
60371;BME280;48550;40.588;49.684;2023-05-10T04:47:00;101698.97;;;16.75;100.00
60371;BME280;48550;40.588;49.684;2023-05-10T04:49:28;101708.19;;;16.74;100.00
60371;BME280;48550;40.588;49.684;2023-05-10T04:51:53;101706.19;;;16.87;100.00
60371;BME280;48550;40.588;49.684;2023-05-10T04:54:19;101709.78;;;16.92;100.00
60371;BME280;48550;40.588;49.684;2023-05-10T04:56:45;101706.06;;;16.98;100.00
60371;BME280;48550;40.588;49.684;2023-05-10T04:59:12;101705.88;;;17.05;100.00
60371;BME280;48550;40.588;49.684;2023-05-10T05:01:38;101703.72;;;17.07;100.00
60371;BME280;48550;40.588;49.684;2023-05-10T05:04:04;101713.91;;;17.17;100.00
60371;BME280;48550;40.588;49.684;2023-05-10T05:06:30;101710.88;;;17.13;100.00
60371;BME280;48550;40.588;49.684;2023-05-10T05:08:56;101716.06;;;17.14;100.00
60371;BME280;48550;40.588;49.684;2023-05-10T05:11:21;101722.88;;;17.17;100.00
60371;BME280;48550;40.588;49.684;2023-05-10T05:13:47;101717.50;;;17.22;100.00
60371;BME280;48550;40.588;49.684;2023-05-10T05:16:13;101727.34;;;17.28;100.00
60371;BME280;48550;40.588;49.684;2023-05-10T05:18:39;101723.06;;;17.32;100.00
60371;BME280;48550;40.588;49.684;2023-05-10T05:21:18;101729.38;;;17.38;100.00
60371;BME280;48550;40.588;49.684;2023-05-10T05:23:44;101724.63;;;17.50;100.00
60371;BME280;48550;40.588;49.684;2023-05-10T05:26:10;101725.88;;;17.64;100.00
60371;BME280;48550;40.588;49.684;2023-05-10T05:28:36;101734.41;;;17.73;100.00
60371;BME280;48550;40.588;49.684;2023-05-10T05:31:05;101736.50;;;17.88;100.00
60371;BME280;48550;40.588;49.684;2023-05-10T05:33:31;101727.34;;;17.99;100.00
60371;BME280;48550;40.588;49.684;2023-05-10T05:35:57;101737.81;;;18.12;100.00
60371;BME280;48550;40.588;49.684;2023-05-10T05:38:22;101747.97;;;18.27;100.00
60371;BME280;48550;40.588;49.684;2023-05-10T05:40:48;101742.06;;;18.35;100.00
60371;BME280;48550;40.588;49.684;2023-05-10T05:43:14;101736.13;;;18.38;100.00
60371;BME280;48550;40.588;49.684;2023-05-10T05:45:40;101744.09;;;18.50;100.00
60371;BME280;48550;40.588;49.684;2023-05-10T05:48:06;101742.63;;;18.64;100.00
60371;BME280;48550;40.588;49.684;2023-05-10T05:50:32;101741.84;;;18.68;100.00
60371;BME280;48550;40.588;49.684;2023-05-10T05:52:57;101753.06;;;18.82;100.00
60371;BME280;48550;40.588;49.684;2023-05-10T05:55:23;101746.63;;;18.98;100.00
60371;BME280;48550;40.588;49.684;2023-05-10T05:57:51;101747.25;;;19.16;100.00
60371;BME280;48550;40.588;49.684;2023-05-10T06:00:17;101748.41;;;19.25;100.00
60371;BME280;48550;40.588;49.684;2023-05-10T06:02:42;101748.13;;;19.26;100.00
60371;BME280;48550;40.588;49.684;2023-05-10T06:05:10;101745.97;;;19.28;100.00
60371;BME280;48550;40.588;49.684;2023-05-10T06:07:35;101745.28;;;19.53;100.00
60371;BME280;48550;40.588;49.684;2023-05-10T06:10:01;101750.16;;;19.51;100.00
60371;BME280;48550;40.588;49.684;2023-05-10T06:12:28;101752.47;;;19.85;100.00
60371;BME280;48550;40.588;49.684;2023-05-10T06:14:53;101755.47;;;19.93;100.00
60371;BME280;48550;40.588;49.684;2023-05-10T06:17:19;101757.97;;;20.10;100.00
60371;BME280;48550;40.588;49.684;2023-05-10T06:19:45;101756.91;;;20.42;100.00
60371;BME280;48550;40.588;49.684;2023-05-10T06:22:11;101754.19;;;20.47;100.00
60371;BME280;48550;40.588;49.684;2023-05-10T06:24:37;101765.06;;;20.31;100.00
60371;BME280;48550;40.588;49.684;2023-05-10T06:27:03;101762.88;;;20.23;96.53
60371;BME280;48550;40.588;49.684;2023-05-10T06:29:29;101766.41;;;20.09;88.56
60371;BME280;48550;40.588;49.684;2023-05-10T06:31:55;101759.56;;;19.96;93.04
60371;BME280;48550;40.588;49.684;2023-05-10T06:34:20;101765.34;;;20.15;94.69
60371;BME280;48550;40.588;49.684;2023-05-10T06:36:46;101766.16;;;20.10;89.19
60371;BME280;48550;40.588;49.684;2023-05-10T06:39:12;101763.97;;;20.12;90.08
60371;BME280;48550;40.588;49.684;2023-05-10T06:41:37;101759.81;;;19.94;90.67
60371;BME280;48550;40.588;49.684;2023-05-10T06:44:03;101757.69;;;20.12;96.71
60371;BME280;48550;40.588;49.684;2023-05-10T06:46:29;101768.88;;;20.10;92.87
60371;BME280;48550;40.588;49.684;2023-05-10T06:48:55;101764.78;;;20.18;84.85
60371;BME280;48550;40.588;49.684;2023-05-10T06:51:21;101767.78;;;20.21;84.76
60371;BME280;48550;40.588;49.684;2023-05-10T06:53:46;101764.25;;;20.26;86.00
60371;BME280;48550;40.588;49.684;2023-05-10T06:56:12;101757.44;;;20.39;80.84
60371;BME280;48550;40.588;49.684;2023-05-10T06:58:38;101759.38;;;20.53;79.77
60371;BME280;48550;40.588;49.684;2023-05-10T07:01:04;101759.91;;;20.55;76.81
60371;BME280;48550;40.588;49.684;2023-05-10T07:03:31;101757.44;;;20.59;75.39
60371;BME280;48550;40.588;49.684;2023-05-10T07:06:06;101760.41;;;20.93;76.83
60371;BME280;48550;40.588;49.684;2023-05-10T07:08:35;101757.88;;;21.22;72.28
60371;BME280;48550;40.588;49.684;2023-05-10T07:11:02;101763.06;;;21.29;70.89
60371;BME280;48550;40.588;49.684;2023-05-10T07:13:30;101765.78;;;21.34;69.65
60371;BME280;48550;40.588;49.684;2023-05-10T07:15:56;101760.22;;;21.54;67.67
60371;BME280;48550;40.588;49.684;2023-05-10T07:18:22;101769.03;;;21.41;72.18
60371;BME280;48550;40.588;49.684;2023-05-10T07:20:47;101762.69;;;21.61;66.40
60371;BME280;48550;40.588;49.684;2023-05-10T07:23:13;101757.75;;;21.63;65.07
60371;BME280;48550;40.588;49.684;2023-05-10T07:25:39;101756.94;;;21.62;65.27
60371;BME280;48550;40.588;49.684;2023-05-10T07:28:04;101744.38;;;22.00;64.72
60371;BME280;48550;40.588;49.684;2023-05-10T07:30:30;101753.69;;;22.04;63.48
60371;BME280;48550;40.588;49.684;2023-05-10T07:32:56;101749.84;;;21.61;63.02
60371;BME280;48550;40.588;49.684;2023-05-10T07:35:22;101749.22;;;21.74;65.17
60371;BME280;48550;40.588;49.684;2023-05-10T07:37:48;101745.44;;;21.65;66.42
60371;BME280;48550;40.588;49.684;2023-05-10T07:40:13;101753.78;;;21.30;69.08
60371;BME280;48550;40.588;49.684;2023-05-10T07:42:39;101747.25;;;21.80;67.10
60371;BME280;48550;40.588;49.684;2023-05-10T07:45:06;101741.84;;;22.14;63.56
60371;BME280;48550;40.588;49.684;2023-05-10T07:47:31;101740.47;;;22.16;63.47
60371;BME280;48550;40.588;49.684;2023-05-10T07:49:57;101731.75;;;22.48;62.82
60371;BME280;48550;40.588;49.684;2023-05-10T07:52:23;101732.50;;;22.83;60.38
60371;BME280;48550;40.588;49.684;2023-05-10T07:54:48;101726.41;;;22.91;57.23
60371;BME280;48550;40.588;49.684;2023-05-10T07:57:15;101722.88;;;22.33;59.18
60371;BME280;48550;40.588;49.684;2023-05-10T07:59:43;101715.19;;;21.96;63.29
60371;BME280;48550;40.588;49.684;2023-05-10T08:02:09;101713.56;;;21.45;68.84
60371;BME280;48550;40.588;49.684;2023-05-10T08:04:35;101716.97;;;21.07;69.79
60371;BME280;48550;40.588;49.684;2023-05-10T08:07:01;101714.06;;;20.62;79.18
60371;BME280;48550;40.588;49.684;2023-05-10T08:09:26;101714.09;;;20.32;78.77
60371;BME280;48550;40.588;49.684;2023-05-10T08:11:52;101716.28;;;20.30;80.17
60371;BME280;48550;40.588;49.684;2023-05-10T08:14:18;101715.72;;;20.38;79.13
60371;BME280;48550;40.588;49.684;2023-05-10T08:16:44;101704.25;;;20.61;80.06
60371;BME280;48550;40.588;49.684;2023-05-10T08:19:09;101713.53;;;20.55;78.92
60371;BME280;48550;40.588;49.684;2023-05-10T08:21:35;101698.53;;;20.63;77.74
60371;BME280;48550;40.588;49.684;2023-05-10T08:24:01;101700.13;;;20.84;77.76
60371;BME280;48550;40.588;49.684;2023-05-10T08:26:27;101719.75;;;20.91;78.89
60371;BME280;48550;40.588;49.684;2023-05-10T08:28:53;101710.78;;;20.76;75.27
60371;BME280;48550;40.588;49.684;2023-05-10T08:31:18;101715.16;;;20.67;84.97
60371;BME280;48550;40.588;49.684;2023-05-10T08:33:44;101709.66;;;20.92;86.99
60371;BME280;48550;40.588;49.684;2023-05-10T08:36:10;101705.59;;;20.89;87.55
60371;BME280;48550;40.588;49.684;2023-05-10T08:38:37;101708.78;;;21.12;85.20
60371;BME280;48550;40.588;49.684;2023-05-10T08:41:04;101703.28;;;21.17;82.13
60371;BME280;48550;40.588;49.684;2023-05-10T08:43:31;101712.38;;;20.97;83.21
60371;BME280;48550;40.588;49.684;2023-05-10T08:46:00;101711.34;;;20.83;82.08
60371;BME280;48550;40.588;49.684;2023-05-10T08:48:29;101714.31;;;20.91;78.30
60371;BME280;48550;40.588;49.684;2023-05-10T08:50:58;101716.22;;;20.86;84.27
60371;BME280;48550;40.588;49.684;2023-05-10T08:53:26;101714.31;;;20.86;87.16
60371;BME280;48550;40.588;49.684;2023-05-10T08:55:53;101718.97;;;20.66;89.62
60371;BME280;48550;40.588;49.684;2023-05-10T08:58:19;101710.81;;;20.60;95.98
60371;BME280;48550;40.588;49.684;2023-05-10T09:00:45;101718.44;;;20.69;88.39
60371;BME280;48550;40.588;49.684;2023-05-10T09:03:12;101720.03;;;20.80;86.13
60371;BME280;48550;40.588;49.684;2023-05-10T09:05:38;101725.97;;;21.22;78.84
60371;BME280;48550;40.588;49.684;2023-05-10T09:08:05;101727.25;;;21.35;75.63
60371;BME280;48550;40.588;49.684;2023-05-10T09:10:32;101728.06;;;21.41;73.93
60371;BME280;48550;40.588;49.684;2023-05-10T09:12:58;101726.72;;;21.38;74.65
60371;BME280;48550;40.588;49.684;2023-05-10T09:15:24;101715.22;;;21.41;69.27
60371;BME280;48550;40.588;49.684;2023-05-10T09:17:50;101727.00;;;21.37;69.98
60371;BME280;48550;40.588;49.684;2023-05-10T09:20:16;101715.31;;;21.16;71.33
60371;BME280;48550;40.588;49.684;2023-05-10T09:22:43;101721.69;;;20.91;70.33
60371;BME280;48550;40.588;49.684;2023-05-10T09:25:11;101719.53;;;20.68;73.45
60371;BME280;48550;40.588;49.684;2023-05-10T09:27:39;101712.16;;;20.73;71.77
60371;BME280;48550;40.588;49.684;2023-05-10T09:30:06;101716.78;;;20.78;73.08
60371;BME280;48550;40.588;49.684;2023-05-10T09:32:46;101713.50;;;20.91;70.14
60371;BME280;48550;40.588;49.684;2023-05-10T09:35:20;101717.31;;;20.80;70.24
60371;BME280;48550;40.588;49.684;2023-05-10T09:37:49;101718.94;;;20.91;68.87
60371;BME280;48550;40.588;49.684;2023-05-10T09:40:20;101717.81;;;21.07;65.86
60371;BME280;48550;40.588;49.684;2023-05-10T09:42:57;101715.56;;;21.19;67.55
60371;BME280;48550;40.588;49.684;2023-05-10T09:45:28;101717.25;;;21.05;71.41
60371;BME280;48550;40.588;49.684;2023-05-10T09:47:55;101719.94;;;21.15;69.94
60371;BME280;48550;40.588;49.684;2023-05-10T09:50:21;101706.28;;;21.20;70.29
60371;BME280;48550;40.588;49.684;2023-05-10T09:53:01;101706.84;;;21.17;72.27
60371;BME280;48550;40.588;49.684;2023-05-10T09:55:38;101695.94;;;21.22;68.79
60371;BME280;48550;40.588;49.684;2023-05-10T09:58:04;101702.59;;;21.50;69.63
60371;BME280;48550;40.588;49.684;2023-05-10T10:00:36;101698.69;;;21.72;67.86
60371;BME280;48550;40.588;49.684;2023-05-10T10:03:02;101705.66;;;21.88;63.50
60371;BME280;48550;40.588;49.684;2023-05-10T10:05:33;101699.31;;;21.59;64.52
60371;BME280;48550;40.588;49.684;2023-05-10T10:08:01;101697.56;;;21.23;71.07
60371;BME280;48550;40.588;49.684;2023-05-10T10:10:27;101699.28;;;21.64;68.23
60371;BME280;48550;40.588;49.684;2023-05-10T10:12:54;101707.66;;;21.77;62.27
60371;BME280;48550;40.588;49.684;2023-05-10T10:15:21;101704.69;;;21.74;62.27
60371;BME280;48550;40.588;49.684;2023-05-10T10:17:48;101697.56;;;21.73;62.55
60371;BME280;48550;40.588;49.684;2023-05-10T10:20:15;101697.66;;;21.63;63.25
60371;BME280;48550;40.588;49.684;2023-05-10T10:22:41;101692.25;;;21.47;63.49
60371;BME280;48550;40.588;49.684;2023-05-10T10:25:08;101706.00;;;21.27;66.44
60371;BME280;48550;40.588;49.684;2023-05-10T10:27:55;101694.97;;;21.47;65.00
60371;BME280;48550;40.588;49.684;2023-05-10T10:30:46;101697.28;;;21.15;65.87
60371;BME280;48550;40.588;49.684;2023-05-10T10:36:08;101688.09;;;20.96;60.43
60371;BME280;48550;40.588;49.684;2023-05-10T10:39:19;101690.03;;;20.90;65.59
60371;BME280;48550;40.588;49.684;2023-05-10T10:41:35;101685.78;;;21.28;65.60
60371;BME280;48550;40.588;49.684;2023-05-10T10:52:24;101683.94;;;21.68;63.75
60371;BME280;48550;40.588;49.684;2023-05-10T10:57:27;101680.19;;;21.59;64.74
60371;BME280;48550;40.588;49.684;2023-05-10T11:00:18;101672.16;;;21.23;67.28
60371;BME280;48550;40.588;49.684;2023-05-10T11:02:45;101670.25;;;21.18;66.90
60371;BME280;48550;40.588;49.684;2023-05-10T11:05:41;101669.69;;;21.27;69.20
60371;BME280;48550;40.588;49.684;2023-05-10T11:08:11;101673.41;;;20.86;72.42
60371;BME280;48550;40.588;49.684;2023-05-10T11:10:38;101662.13;;;21.03;73.19
60371;BME280;48550;40.588;49.684;2023-05-10T11:13:06;101665.75;;;20.88;73.18
60371;BME280;48550;40.588;49.684;2023-05-10T11:15:36;101659.81;;;20.56;81.79
60371;BME280;48550;40.588;49.684;2023-05-10T11:18:19;101662.25;;;20.57;82.58
60371;BME280;48550;40.588;49.684;2023-05-10T11:20:51;101663.34;;;20.61;80.48
60371;BME280;48550;40.588;49.684;2023-05-10T11:23:17;101664.47;;;20.45;89.01
60371;BME280;48550;40.588;49.684;2023-05-10T11:25:44;101658.22;;;20.24;100.00
60371;BME280;48550;40.588;49.684;2023-05-10T11:28:12;101652.47;;;20.06;100.00
60371;BME280;48550;40.588;49.684;2023-05-10T11:30:39;101653.59;;;20.20;100.00
60371;BME280;48550;40.588;49.684;2023-05-10T11:33:06;101647.28;;;19.99;100.00
60371;BME280;48550;40.588;49.684;2023-05-10T11:35:37;101636.69;;;19.82;100.00
60371;BME280;48550;40.588;49.684;2023-05-10T11:38:08;101644.31;;;20.21;97.32
60371;BME280;48550;40.588;49.684;2023-05-10T11:40:37;101629.31;;;20.13;100.00
60371;BME280;48550;40.588;49.684;2023-05-10T11:43:04;101640.50;;;20.22;100.00
60371;BME280;48550;40.588;49.684;2023-05-10T11:45:34;101638.88;;;20.16;92.08
60371;BME280;48550;40.588;49.684;2023-05-10T11:48:01;101642.69;;;20.20;89.88
60371;BME280;48550;40.588;49.684;2023-05-10T11:50:27;101634.75;;;20.28;100.00
60371;BME280;48550;40.588;49.684;2023-05-10T11:52:54;101638.31;;;20.19;100.00
60371;BME280;48550;40.588;49.684;2023-05-10T11:55:20;101632.84;;;20.29;100.00
60371;BME280;48550;40.588;49.684;2023-05-10T11:57:46;101639.69;;;20.11;94.34
60371;BME280;48550;40.588;49.684;2023-05-10T12:00:14;101636.13;;;20.21;100.00
60371;BME280;48550;40.588;49.684;2023-05-10T12:02:40;101639.41;;;20.08;100.00
60371;BME280;48550;40.588;49.684;2023-05-10T12:05:07;101632.31;;;20.12;100.00
60371;BME280;48550;40.588;49.684;2023-05-10T12:07:33;101633.94;;;19.87;100.00
60371;BME280;48550;40.588;49.684;2023-05-10T12:10:06;101632.31;;;19.66;100.00
60371;BME280;48550;40.588;49.684;2023-05-10T12:12:45;101630.59;;;19.40;100.00
60371;BME280;48550;40.588;49.684;2023-05-10T12:15:22;101620.00;;;19.43;100.00
60371;BME280;48550;40.588;49.684;2023-05-10T12:17:48;101618.03;;;19.28;100.00
60371;BME280;48550;40.588;49.684;2023-05-10T12:20:21;101613.13;;;19.25;100.00
60371;BME280;48550;40.588;49.684;2023-05-10T12:22:55;101601.16;;;19.21;100.00
60371;BME280;48550;40.588;49.684;2023-05-10T12:25:22;101605.78;;;19.21;100.00
60371;BME280;48550;40.588;49.684;2023-05-10T12:27:54;101600.59;;;19.14;100.00
60371;BME280;48550;40.588;49.684;2023-05-10T12:30:25;101592.94;;;19.01;100.00
60371;BME280;48550;40.588;49.684;2023-05-10T12:33:02;101598.31;;;18.81;100.00
60371;BME280;48550;40.588;49.684;2023-05-10T12:35:32;101592.00;;;18.70;100.00
60371;BME280;48550;40.588;49.684;2023-05-10T12:37:58;101601.00;;;18.76;100.00
60371;BME280;48550;40.588;49.684;2023-05-10T12:40:24;101599.16;;;18.96;100.00
60371;BME280;48550;40.588;49.684;2023-05-10T12:42:50;101600.31;;;19.16;100.00
60371;BME280;48550;40.588;49.684;2023-05-10T12:45:17;101588.13;;;19.39;100.00
60371;BME280;48550;40.588;49.684;2023-05-10T12:47:43;101594.69;;;19.43;100.00
60371;BME280;48550;40.588;49.684;2023-05-10T12:50:10;101598.00;;;19.55;100.00
60371;BME280;48550;40.588;49.684;2023-05-10T12:52:36;101594.97;;;19.51;100.00
60371;BME280;48550;40.588;49.684;2023-05-10T12:55:02;101597.69;;;19.46;100.00
60371;BME280;48550;40.588;49.684;2023-05-10T12:57:28;101597.44;;;19.53;100.00
60371;BME280;48550;40.588;49.684;2023-05-10T12:59:54;101604.25;;;19.55;100.00
60371;BME280;48550;40.588;49.684;2023-05-10T13:02:21;101599.31;;;19.47;100.00
60371;BME280;48550;40.588;49.684;2023-05-10T13:04:48;101587.53;;;19.21;100.00
60371;BME280;48550;40.588;49.684;2023-05-10T13:07:14;101588.63;;;19.15;100.00
60371;BME280;48550;40.588;49.684;2023-05-10T13:09:40;101592.97;;;19.16;100.00
60371;BME280;48550;40.588;49.684;2023-05-10T13:12:06;101586.38;;;18.97;100.00